Vremea acum in Comarnic - Romania

Vrei sa afli care e starea vremii acum in Giurgiu - Romania? Dorim sa iti furnizam starea vremii pentru Giurgiu - Romania. Starea vremii Giurgiu - Romania pentru astazi.

Vremea acum in Comarnic

Temperatura: 13.6 °C

Este: Ploi usoare
Se simte ca: 13.6 °C
Innorat: 55 %
Precipitatii: 100 %
Presiune atmosferica: 1014 hPa
Umiditate: 73%
Vizibilitate: 10 km
Vantul bate din SW cu 3.6 km/h

Evolutia vremii in Comarnic pe ore

Ora: 16:00
Ploi usoare
Temperatura: 13.1°C
Sansa de precipitatii: 100%
Ora Descriere Temp Se simte Precipitatii Umiditate Vant
00:00Burniță ușoară8.5°8.5°100%98%NNW 4 KM/H
01:00Ceata8.6°8.2°100%97%NNW 4.7 KM/H
02:00Ceata8.5°74%97%NNW 5 KM/H
03:00Ceata8.3°7.7°86%97%NNW 5.4 KM/H
04:00Ceata8.1°7.3°100%97%NNW 6.1 KM/H
05:00Ceata7.9°100%97%N 6.1 KM/H
06:00Ceata7.9°6.9°87%96%N 6.5 KM/H
07:00Ceata7.1°100%96%NNW 6.1 KM/H
08:00Ceata8.2°7.5°100%94%N 5.4 KM/H
09:00Patchy rain nearby8.7°79%91%N 5.8 KM/H
10:00Patchy rain nearby10°9.9°100%84%NNW 4.3 KM/H
11:00Patchy rain nearby10.6°10.7°100%81%N 4 KM/H
12:00Ploi usoare11.4°11.8°100%77%NNE 3.6 KM/H
13:00Patchy rain nearby13.4°13.4°100%66%NE 1.1 KM/H
14:00Patchy rain nearby14°14°100%67%SW 1.8 KM/H
15:00Ploi usoare13.6°13.6°100%73%SW 3.6 KM/H
16:00Ploi usoare13.1°13.2°100%76%WSW 2.9 KM/H
17:00Ploi usoare12.8°12.8°100%78%W 2.9 KM/H
18:00Ploi usoare12.4°13.1°100%81%WSW 3.2 KM/H
19:00Patchy rain nearby12°12°100%82%SW 2.9 KM/H
20:00Patchy rain nearby11°11.5°100%89%SSW 3.2 KM/H
21:009.9°9.9°0%93%SSW 2.9 KM/H
22:00Ceata9.6°9.6°0%94%SSW 2.2 KM/H
23:00Ceata9.5°9.5°76%95%SSW 2.2 KM/H




tutorials